FLD weather

Fond du Lac County Airport
Fond du Lac, Wisconsin, United States

Public forecast

Using degrees Fahrenheit for public forecast. Weather courtesy of forecast.io.

Current aviation weather report (METAR) for Fond du Lac County Airport

Retrieved 2020/03/30 09:53 UTC (48 minutes ago):

KFLD 300953Z AUTO 31014KT 10SM OVC030 04/01 A2998 RMK AO2 SLP158 T00390011

Closest aviation forecast (TAF) to Fond du Lac County Airport

Forecast is more than 12 hours old.

Closest forecast is Wittman Regional Airport, 13.1 nm (24.3 km) NNW. Retrieved 2019/07/30 12:39 UTC (8 months ago):

TAF KOSH 301136Z 3012/3112 36006KT P6SM BKN050 TEMPO 3015/3017 BKN025 FM301700 01006KT P6SM BKN035 FM302200 04005KT P6SM SCT045 FM310200 11003KT P6SM SKC FM310900 VRB03KT 6SM BR SKC